createdAt,value
2023-01-03T00:00:49.451Z,4.35
2023-01-03T00:01:47.397Z,4.45
2023-01-03T00:02:44.306Z,4.27
2023-01-03T00:03:43.829Z,3.61
2023-01-03T00:04:45.853Z,4.69
2023-01-03T00:05:51.481Z,3.67
2023-01-03T00:06:51.703Z,4.88
2023-01-03T00:07:48.545Z,5.06
2023-01-03T00:08:48.978Z,4.55
2023-01-03T00:09:45.761Z,5.00
2023-01-03T00:10:43.017Z,4.15
2023-01-03T00:12:00.223Z,5.02
2023-01-03T00:12:57.729Z,5.32
2023-01-03T00:13:54.474Z,4.56
2023-01-03T00:14:51.316Z,4.67
2023-01-03T00:15:48.124Z,4.47
2023-01-03T00:16:45.603Z,4.77
2023-01-03T00:17:43.504Z,4.96
2023-01-03T00:18:40.370Z,4.64
2023-01-03T00:19:42.628Z,4.00
2023-01-03T00:20:39.369Z,4.77
2023-01-03T00:21:36.405Z,3.59
2023-01-03T00:22:33.152Z,4.21
2023-01-03T00:23:30.379Z,4.32
2023-01-03T00:24:27.461Z,4.84
2023-01-03T00:25:24.264Z,4.94
2023-01-03T00:26:21.008Z,4.87
2023-01-03T00:27:17.900Z,4.81
2023-01-03T00:28:14.719Z,4.77
2023-01-03T00:29:12.392Z,4.34
2023-01-03T00:30:09.626Z,5.07
2023-01-03T00:31:08.605Z,5.52
2023-01-03T00:32:06.850Z,5.49
2023-01-03T00:33:04.156Z,4.62
2023-01-03T00:34:00.917Z,5.14
2023-01-03T00:35:01.573Z,4.33
2023-01-03T00:36:06.537Z,5.47
2023-01-03T00:37:03.512Z,4.97
2023-01-03T00:38:00.272Z,5.10
2023-01-03T00:38:57.462Z,4.83
2023-01-03T00:39:54.262Z,4.62
2023-01-03T00:40:51.038Z,4.19
2023-01-03T00:41:47.810Z,4.38
2023-01-03T00:43:03.064Z,4.04
2023-01-03T00:44:00.596Z,4.33
2023-01-03T00:44:57.332Z,5.32
2023-01-03T00:45:54.197Z,4.88
2023-01-03T00:46:51.025Z,4.59
2023-01-03T00:47:47.752Z,4.52
2023-01-03T00:48:45.433Z,3.93
2023-01-03T00:49:42.182Z,3.23
2023-01-03T00:50:39.026Z,4.20
2023-01-03T00:51:38.206Z,3.53
2023-01-03T00:52:34.964Z,3.65
2023-01-03T00:53:31.746Z,5.15
2023-01-03T00:54:28.553Z,3.86
2023-01-03T00:55:25.331Z,3.84
2023-01-03T00:56:25.879Z,4.05
2023-01-03T00:57:22.660Z,4.71
2023-01-03T00:58:19.484Z,3.91
2023-01-03T00:59:18.595Z,4.79
2023-01-03T01:00:15.632Z,5.04
2023-01-03T01:01:21.928Z,4.06
2023-01-03T01:02:20.524Z,5.40
2023-01-03T01:03:18.305Z,4.91
2023-01-03T01:04:17.433Z,4.86
2023-01-03T01:05:14.214Z,3.46
2023-01-03T01:06:15.133Z,3.48
2023-01-03T01:07:11.959Z,4.18
2023-01-03T01:08:08.764Z,4.06
2023-01-03T01:09:10.184Z,4.05
2023-01-03T01:10:07.127Z,4.33
2023-01-03T01:11:04.558Z,4.43
2023-01-03T01:12:01.681Z,4.90
2023-01-03T01:12:58.485Z,5.44
2023-01-03T01:13:55.741Z,4.92
2023-01-03T01:14:52.487Z,4.55
2023-01-03T01:15:49.305Z,4.70
2023-01-03T01:16:53.039Z,4.63
2023-01-03T01:17:49.756Z,4.51
2023-01-03T01:18:49.006Z,4.21
2023-01-03T01:19:46.151Z,4.03
2023-01-03T01:20:42.877Z,4.03
2023-01-03T01:21:39.789Z,4.31
2023-01-03T01:22:36.557Z,3.23
2023-01-03T01:23:35.671Z,4.32
2023-01-03T01:24:33.565Z,4.46
2023-01-03T01:25:30.332Z,4.05
2023-01-03T01:26:27.926Z,4.04
2023-01-03T01:27:24.654Z,4.39
2023-01-03T01:28:21.387Z,2.87
2023-01-03T01:29:19.369Z,3.89
2023-01-03T01:30:16.298Z,4.30
2023-01-03T01:31:19.665Z,3.97
2023-01-03T01:32:16.458Z,4.34
2023-01-03T01:33:13.226Z,4.41
2023-01-03T01:34:10.746Z,4.14
2023-01-03T01:35:07.955Z,3.33
2023-01-03T01:36:32.597Z,4.10
2023-01-03T01:37:29.408Z,4.27
2023-01-03T01:38:26.226Z,4.35
2023-01-03T01:39:26.820Z,4.38
2023-01-03T01:40:23.625Z,4.53
2023-01-03T01:41:40.616Z,4.05
2023-01-03T01:42:55.814Z,4.78
2023-01-03T01:44:18.050Z,5.18
2023-01-03T01:45:15.357Z,5.10
2023-01-03T01:46:20.948Z,5.25
2023-01-03T01:47:22.363Z,4.71
2023-01-03T01:48:19.194Z,4.10
2023-01-03T01:49:23.401Z,4.48
2023-01-03T01:50:29.276Z,4.85
2023-01-03T01:51:30.749Z,4.88
2023-01-03T01:52:30.171Z,4.22
2023-01-03T01:53:34.723Z,4.53
2023-01-03T01:54:31.585Z,4.33
2023-01-03T01:55:36.554Z,3.68
2023-01-03T01:56:43.493Z,3.13
2023-01-03T01:57:43.040Z,4.05
2023-01-03T01:58:43.463Z,3.66
2023-01-03T01:59:40.435Z,3.96
2023-01-03T02:00:37.996Z,4.28
2023-01-03T02:01:35.969Z,2.98
2023-01-03T02:02:33.039Z,3.83
2023-01-03T02:03:29.895Z,3.98
2023-01-03T02:04:33.898Z,3.91
2023-01-03T02:05:34.395Z,3.23
2023-01-03T02:06:33.087Z,3.37
2023-01-03T02:07:29.800Z,3.22
2023-01-03T02:08:26.556Z,4.97
2023-01-03T02:09:23.304Z,4.06
2023-01-03T02:10:33.210Z,5.06
2023-01-03T02:11:44.923Z,5.27
2023-01-03T02:13:12.225Z,3.99
2023-01-03T02:14:23.729Z,4.44
2023-01-03T02:15:36.393Z,3.26
2023-01-03T02:16:54.531Z,4.93
2023-01-03T02:18:22.487Z,4.19
2023-01-03T02:19:49.921Z,5.27
2023-01-03T02:20:55.557Z,4.97
2023-01-03T02:22:25.179Z,3.81
2023-01-03T02:23:52.808Z,3.95
2023-01-03T02:25:15.274Z,3.89
2023-01-03T02:26:56.799Z,3.57
2023-01-03T02:27:53.540Z,4.08
2023-01-03T02:29:17.339Z,3.56
2023-01-03T02:30:19.832Z,3.92
2023-01-03T02:31:27.796Z,3.91
2023-01-03T02:33:02.527Z,4.32
2023-01-03T02:34:21.359Z,4.63
2023-01-03T02:35:53.430Z,3.84
2023-01-03T02:37:10.814Z,4.08
2023-01-03T02:38:37.045Z,2.50
2023-01-03T02:39:45.273Z,2.65
2023-01-03T02:41:03.025Z,2.91
2023-01-03T02:42:31.933Z,3.77
2023-01-03T02:43:43.657Z,2.96
2023-01-03T02:44:51.076Z,3.05
2023-01-03T02:46:03.060Z,3.51
2023-01-03T02:47:15.274Z,2.81
2023-01-03T02:48:20.094Z,3.48
2023-01-03T02:49:24.192Z,2.99
2023-01-03T02:50:27.404Z,2.90
2023-01-03T02:51:27.796Z,3.54
2023-01-03T02:52:29.472Z,3.52
2023-01-03T02:53:34.004Z,3.31
2023-01-03T02:54:57.359Z,3.51
2023-01-03T02:56:01.896Z,3.59
2023-01-03T02:57:11.921Z,3.36
2023-01-03T02:58:21.225Z,3.10
2023-01-03T02:59:33.091Z,3.51
2023-01-03T03:00:34.269Z,4.51
2023-01-03T03:01:35.464Z,4.40
2023-01-03T03:02:36.668Z,3.82
2023-01-03T03:03:38.013Z,3.58
2023-01-03T03:04:39.316Z,3.54
2023-01-03T03:06:02.921Z,3.64
2023-01-03T03:07:15.699Z,2.16
2023-01-03T03:08:12.527Z,3.57
2023-01-03T03:09:09.405Z,3.44
2023-01-03T03:10:26.663Z,3.44
2023-01-03T03:11:48.395Z,3.45
2023-01-03T03:13:11.591Z,3.35
2023-01-03T03:14:36.873Z,3.38
2023-01-03T03:15:45.800Z,3.51
2023-01-03T03:16:47.931Z,2.67
2023-01-03T03:17:47.520Z,3.52
2023-01-03T03:19:02.036Z,3.33
2023-01-03T03:20:17.386Z,3.59
2023-01-03T03:21:38.585Z,2.34
2023-01-03T03:23:10.078Z,3.65
2023-01-03T03:24:38.372Z,3.56
2023-01-03T03:25:43.271Z,3.41
2023-01-03T03:26:45.351Z,3.76
2023-01-03T03:28:05.731Z,3.08
2023-01-03T03:29:10.752Z,3.47
2023-01-03T03:30:14.342Z,3.05
2023-01-03T03:31:32.590Z,3.44
2023-01-03T03:32:35.714Z,3.35
2023-01-03T03:33:41.007Z,2.93
2023-01-03T03:34:38.975Z,3.28
2023-01-03T03:36:07.558Z,3.29
2023-01-03T03:37:12.781Z,3.45
2023-01-03T03:38:14.533Z,3.16
2023-01-03T03:39:32.950Z,3.30
2023-01-03T03:40:56.810Z,3.48
2023-01-03T03:42:22.985Z,3.54
2023-01-03T03:44:02.676Z,3.73
2023-01-03T03:45:27.478Z,3.99
2023-01-03T03:46:39.129Z,4.23
2023-01-03T03:47:45.473Z,3.59
2023-01-03T03:49:24.780Z,4.28
2023-01-03T03:50:50.362Z,1.64
2023-01-03T03:51:50.351Z,3.74
2023-01-03T03:52:53.554Z,3.62
2023-01-03T03:53:53.850Z,3.11
2023-01-03T03:55:00.234Z,2.64
2023-01-03T03:56:05.529Z,3.56
2023-01-03T03:57:11.328Z,3.19
2023-01-03T03:58:18.936Z,3.77
2023-01-03T03:59:21.223Z,3.10
2023-01-03T04:00:25.432Z,2.92
2023-01-03T04:01:26.456Z,3.41
2023-01-03T04:02:28.090Z,2.96
2023-01-03T04:03:26.822Z,2.77
2023-01-03T04:04:31.570Z,1.93
2023-01-03T04:05:37.752Z,3.47
2023-01-03T04:06:42.965Z,3.04
2023-01-03T04:07:40.404Z,3.30
2023-01-03T04:08:37.410Z,2.42
2023-01-03T04:09:34.314Z,3.05
2023-01-03T04:10:35.681Z,3.49
2023-01-03T04:11:34.777Z,0.22
2023-01-03T04:12:31.795Z,3.98
2023-01-03T04:13:28.582Z,3.23
2023-01-03T04:14:25.373Z,3.73
2023-01-03T04:15:22.397Z,3.66
2023-01-03T04:16:19.255Z,3.60
2023-01-03T04:17:16.984Z,4.15
2023-01-03T04:18:13.857Z,3.84
2023-01-03T04:19:10.693Z,3.73
2023-01-03T04:20:07.919Z,3.46
2023-01-03T04:21:04.750Z,1.91
2023-01-03T04:22:01.772Z,3.08
2023-01-03T04:23:01.185Z,3.54
2023-01-03T04:23:57.992Z,2.44
2023-01-03T04:24:54.791Z,3.34
2023-01-03T04:25:51.570Z,3.71
2023-01-03T04:26:48.805Z,3.83
2023-01-03T04:27:45.656Z,2.69
2023-01-03T04:28:42.416Z,4.42
2023-01-03T04:29:39.805Z,3.12
2023-01-03T04:30:36.843Z,3.75
2023-01-03T04:31:33.623Z,3.42
2023-01-03T04:32:30.492Z,2.59
2023-01-03T04:33:27.256Z,2.87
2023-01-03T04:34:24.113Z,3.71
2023-01-03T04:35:20.960Z,3.63
2023-01-03T04:36:18.491Z,3.04
2023-01-03T04:37:15.232Z,3.15
2023-01-03T04:38:11.979Z,3.22
2023-01-03T04:39:08.724Z,3.81
2023-01-03T04:40:06.044Z,3.80
2023-01-03T04:41:08.152Z,3.67
2023-01-03T04:42:25.073Z,3.49
2023-01-03T04:43:40.670Z,3.80
2023-01-03T04:44:37.474Z,3.35
2023-01-03T04:45:35.508Z,3.53
2023-01-03T04:46:35.628Z,3.35
2023-01-03T04:47:32.408Z,3.32
2023-01-03T04:48:29.150Z,3.34
2023-01-03T04:49:25.949Z,2.53
2023-01-03T04:50:22.850Z,3.24
2023-01-03T04:51:19.685Z,2.53
2023-01-03T04:52:16.663Z,2.56
2023-01-03T04:53:15.095Z,3.07
2023-01-03T04:54:11.870Z,3.24
2023-01-03T04:55:14.171Z,3.23
2023-01-03T04:56:11.101Z,2.79
2023-01-03T04:57:08.666Z,2.33
2023-01-03T04:58:05.445Z,2.74
2023-01-03T04:59:20.619Z,2.70
2023-01-03T05:00:18.519Z,3.04
2023-01-03T05:01:15.439Z,3.37
2023-01-03T05:02:12.417Z,3.15
2023-01-03T05:03:09.390Z,3.00
2023-01-03T05:04:06.195Z,2.49
2023-01-03T05:05:03.000Z,3.19
2023-01-03T05:06:03.711Z,3.20
2023-01-03T05:07:00.558Z,1.91
2023-01-03T05:07:57.330Z,2.96
2023-01-03T05:08:54.573Z,2.49
2023-01-03T05:09:51.300Z,1.54
2023-01-03T05:10:48.089Z,2.82
2023-01-03T05:11:44.839Z,2.92
2023-01-03T05:12:41.585Z,3.28
2023-01-03T05:13:38.415Z,1.50
2023-01-03T05:14:37.221Z,3.14
2023-01-03T05:15:39.680Z,3.78
2023-01-03T05:16:36.636Z,3.45
2023-01-03T05:17:33.452Z,3.55
2023-01-03T05:18:31.110Z,3.33
2023-01-03T05:19:27.911Z,3.68
2023-01-03T05:20:43.367Z,2.63
2023-01-03T05:21:58.858Z,1.70
2023-01-03T05:23:14.440Z,2.69
2023-01-03T05:24:30.822Z,2.75
2023-01-03T05:25:46.468Z,1.30
2023-01-03T05:26:44.207Z,2.99
2023-01-03T05:27:41.107Z,2.53
2023-01-03T05:28:38.931Z,3.03
2023-01-03T05:29:37.276Z,2.91
2023-01-03T05:30:33.973Z,2.94
2023-01-03T05:31:30.781Z,2.86
2023-01-03T05:32:29.232Z,3.31
2023-01-03T05:33:26.045Z,1.98
2023-01-03T05:34:23.165Z,2.95
2023-01-03T05:35:20.116Z,3.62
2023-01-03T05:36:16.964Z,3.63
2023-01-03T05:37:13.763Z,4.21
2023-01-03T05:38:10.508Z,3.65
2023-01-03T05:39:07.753Z,2.54
2023-01-03T05:40:05.102Z,3.32
2023-01-03T05:41:01.870Z,3.15
2023-01-03T05:42:01.291Z,1.76
2023-01-03T05:42:58.063Z,1.50
2023-01-03T05:43:54.826Z,2.47
2023-01-03T05:44:51.575Z,2.71
2023-01-03T05:45:52.947Z,2.88
2023-01-03T05:46:49.899Z,2.09
2023-01-03T05:47:46.734Z,2.42
2023-01-03T05:48:43.592Z,2.97
2023-01-03T05:49:40.302Z,3.47
2023-01-03T05:50:37.985Z,3.21
2023-01-03T05:51:34.839Z,3.15
2023-01-03T05:52:31.579Z,2.22
2023-01-03T05:53:28.320Z,3.62
2023-01-03T05:54:25.165Z,3.26
2023-01-03T05:55:22.106Z,2.25
2023-01-03T05:56:18.957Z,2.37
2023-01-03T05:57:15.714Z,0.41
2023-01-03T05:58:13.006Z,3.22
2023-01-03T05:59:10.178Z,3.22
2023-01-03T06:00:07.564Z,3.33
2023-01-03T06:01:12.959Z,3.07
2023-01-03T06:02:09.906Z,2.83
2023-01-03T06:03:07.223Z,2.85
2023-01-03T06:04:04.638Z,2.59
2023-01-03T06:05:01.526Z,3.25
2023-01-03T06:06:06.188Z,3.34
2023-01-03T06:07:02.952Z,3.18
2023-01-03T06:08:01.824Z,2.87
2023-01-03T06:09:00.006Z,2.69
2023-01-03T06:09:56.848Z,1.90
2023-01-03T06:10:53.650Z,2.87
2023-01-03T06:11:50.479Z,2.52
2023-01-03T06:12:47.284Z,1.31
2023-01-03T06:13:45.032Z,2.88
2023-01-03T06:14:41.774Z,2.54
2023-01-03T06:15:38.524Z,2.55
2023-01-03T06:16:53.847Z,2.73
2023-01-03T06:17:58.969Z,2.42
2023-01-03T06:18:56.448Z,2.51
2023-01-03T06:19:53.227Z,1.76
2023-01-03T06:20:50.019Z,2.59
2023-01-03T06:21:46.784Z,2.67
2023-01-03T06:22:43.642Z,2.66
2023-01-03T06:23:40.455Z,2.40
2023-01-03T06:24:37.241Z,1.68
2023-01-03T06:25:33.956Z,2.58
2023-01-03T06:26:30.734Z,3.49
2023-01-03T06:27:27.555Z,2.86
2023-01-03T06:28:24.309Z,2.83
2023-01-03T06:29:21.026Z,2.78
2023-01-03T06:30:17.887Z,2.78
2023-01-03T06:31:14.989Z,2.42
2023-01-03T06:32:11.761Z,2.50
2023-01-03T06:33:08.555Z,2.49
2023-01-03T06:34:08.096Z,3.02
2023-01-03T06:35:05.385Z,3.18
2023-01-03T06:36:05.278Z,2.32
2023-01-03T06:37:02.064Z,1.45
2023-01-03T06:37:58.897Z,2.15
2023-01-03T06:38:55.639Z,1.29
2023-01-03T06:39:52.391Z,1.41
2023-01-03T06:40:50.287Z,1.66
2023-01-03T06:41:47.068Z,1.76
2023-01-03T06:42:43.912Z,0.70
2023-01-03T06:43:41.663Z,2.66
2023-01-03T06:44:38.432Z,2.31
2023-01-03T06:45:53.886Z,2.56
2023-01-03T06:47:09.094Z,3.38
2023-01-03T06:48:25.101Z,3.11
2023-01-03T06:49:40.408Z,1.18
2023-01-03T06:50:58.441Z,2.43
2023-01-03T06:52:13.850Z,2.60
2023-01-03T06:53:20.224Z,2.94
2023-01-03T06:54:25.118Z,-0.96
2023-01-03T06:55:21.846Z,2.36
2023-01-03T06:56:18.724Z,2.93
2023-01-03T06:57:26.536Z,2.81
2023-01-03T06:58:24.024Z,1.95
2023-01-03T06:59:21.853Z,2.55
2023-01-03T07:00:18.733Z,2.06
2023-01-03T07:01:15.782Z,2.49
2023-01-03T07:02:12.649Z,2.14
2023-01-03T07:03:11.679Z,2.65
2023-01-03T07:04:08.707Z,2.02
2023-01-03T07:05:05.944Z,1.40
2023-01-03T07:06:02.845Z,2.31
2023-01-03T07:06:59.745Z,2.16
2023-01-03T07:07:56.830Z,2.19
2023-01-03T07:08:53.872Z,1.08
2023-01-03T07:09:50.664Z,2.16
2023-01-03T07:10:47.494Z,2.21
2023-01-03T07:11:44.536Z,1.21
2023-01-03T07:12:59.844Z,1.87
2023-01-03T07:13:59.555Z,1.63
2023-01-03T07:14:56.360Z,2.32
2023-01-03T07:15:53.210Z,1.93
2023-01-03T07:16:50.032Z,3.05
2023-01-03T07:17:46.825Z,2.91
2023-01-03T07:18:46.968Z,2.13
2023-01-03T07:19:49.636Z,1.95
2023-01-03T07:20:46.497Z,1.57
2023-01-03T07:21:43.955Z,2.48
2023-01-03T07:22:40.677Z,2.16
2023-01-03T07:23:37.647Z,1.66
2023-01-03T07:24:34.411Z,1.98
2023-01-03T07:25:31.199Z,2.41
2023-01-03T07:26:33.627Z,2.49
2023-01-03T07:27:30.551Z,2.38
2023-01-03T07:28:27.441Z,1.90
2023-01-03T07:29:24.245Z,2.34
2023-01-03T07:30:21.099Z,2.72
2023-01-03T07:31:18.268Z,2.13
2023-01-03T07:32:15.122Z,2.40
2023-01-03T07:33:14.679Z,2.37
2023-01-03T07:34:11.434Z,1.93
2023-01-03T07:35:08.460Z,1.97
2023-01-03T07:36:12.067Z,2.68
2023-01-03T07:37:09.117Z,2.31
2023-01-03T07:38:07.050Z,2.71
2023-01-03T07:39:04.199Z,2.30
2023-01-03T07:40:01.001Z,1.62
2023-01-03T07:41:02.328Z,2.91
2023-01-03T07:42:17.571Z,3.13
2023-01-03T07:43:32.829Z,3.08
2023-01-03T07:44:29.560Z,3.50
2023-01-03T07:45:26.381Z,3.63
2023-01-03T07:46:25.056Z,3.43
2023-01-03T07:47:21.891Z,3.50
2023-01-03T07:48:18.636Z,3.29
2023-01-03T07:49:15.460Z,3.16
2023-01-03T07:50:12.840Z,3.61
2023-01-03T07:51:11.793Z,4.06
2023-01-03T07:52:08.635Z,3.78
2023-01-03T07:53:07.143Z,3.64
2023-01-03T07:54:04.077Z,3.21
2023-01-03T07:55:00.838Z,3.68
2023-01-03T07:56:13.584Z,3.91
2023-01-03T07:57:10.559Z,3.92
2023-01-03T07:58:07.310Z,3.85
2023-01-03T07:59:04.045Z,3.70
2023-01-03T08:00:00.857Z,3.82
2023-01-03T08:01:12.903Z,4.35
2023-01-03T08:02:09.903Z,3.85
2023-01-03T08:03:10.734Z,4.50
2023-01-03T08:04:08.411Z,3.91
2023-01-03T08:05:05.573Z,4.41
2023-01-03T08:06:05.430Z,3.98
2023-01-03T08:07:02.222Z,4.46
2023-01-03T08:07:58.970Z,4.59
2023-01-03T08:09:14.494Z,4.60
2023-01-03T08:10:29.739Z,3.93
2023-01-03T08:11:44.977Z,4.02
2023-01-03T08:13:00.413Z,4.26
2023-01-03T08:13:57.692Z,4.20
2023-01-03T08:14:54.499Z,4.18
2023-01-03T08:15:55.231Z,3.92
2023-01-03T08:16:52.216Z,2.98
2023-01-03T08:17:49.002Z,4.21
2023-01-03T08:18:46.696Z,4.45
2023-01-03T08:19:45.813Z,3.48
2023-01-03T08:20:43.351Z,3.49
2023-01-03T08:21:40.099Z,3.99
2023-01-03T08:22:36.848Z,3.79
2023-01-03T08:23:33.983Z,4.05
2023-01-03T08:24:30.779Z,3.68
2023-01-03T08:25:27.568Z,4.31
2023-01-03T08:26:24.347Z,4.51
2023-01-03T08:27:21.235Z,4.31
2023-01-03T08:28:19.019Z,4.16
2023-01-03T08:29:15.859Z,3.97
2023-01-03T08:30:12.874Z,3.86
2023-01-03T08:31:19.814Z,4.45
2023-01-03T08:32:17.861Z,4.78
2023-01-03T08:33:18.888Z,4.02
2023-01-03T08:34:23.602Z,4.38
2023-01-03T08:35:29.727Z,4.62
2023-01-03T08:36:33.269Z,4.48
2023-01-03T08:37:30.061Z,4.82
2023-01-03T08:38:36.687Z,4.90
2023-01-03T08:39:41.933Z,4.81
2023-01-03T08:40:42.673Z,5.07
2023-01-03T08:41:45.580Z,4.66
2023-01-03T08:42:43.780Z,4.52
2023-01-03T08:43:45.321Z,3.76
2023-01-03T08:44:44.958Z,4.01
2023-01-03T08:45:41.983Z,4.68
2023-01-03T08:46:50.121Z,3.88
2023-01-03T08:47:47.481Z,4.78
2023-01-03T08:48:45.648Z,4.33
2023-01-03T08:49:43.342Z,4.50
2023-01-03T08:50:54.263Z,3.81
2023-01-03T08:51:51.147Z,4.44
2023-01-03T08:52:48.577Z,5.10
2023-01-03T08:53:45.421Z,4.21
2023-01-03T08:54:44.029Z,4.85
2023-01-03T08:55:40.848Z,3.52
2023-01-03T08:56:38.370Z,4.82
2023-01-03T08:57:35.127Z,5.02
2023-01-03T08:58:31.909Z,3.74
2023-01-03T08:59:28.633Z,5.22
2023-01-03T09:00:26.297Z,4.98
2023-01-03T09:01:24.328Z,5.12
2023-01-03T09:02:21.454Z,5.28
2023-01-03T09:03:19.580Z,5.33
2023-01-03T09:04:16.648Z,5.71
2023-01-03T09:05:13.492Z,5.08
2023-01-03T09:06:10.268Z,5.88
2023-01-03T09:07:07.227Z,5.14
2023-01-03T09:08:04.191Z,4.24
2023-01-03T09:09:07.635Z,5.51
2023-01-03T09:10:04.797Z,5.55
2023-01-03T09:11:06.611Z,5.25
2023-01-03T09:12:03.467Z,5.14
2023-01-03T09:13:02.611Z,5.64
2023-01-03T09:13:59.662Z,5.75
2023-01-03T09:14:56.491Z,5.60
2023-01-03T09:16:05.921Z,5.93
2023-01-03T09:17:02.799Z,5.25
2023-01-03T09:17:59.667Z,6.14
2023-01-03T09:19:01.133Z,5.93
2023-01-03T09:19:57.881Z,4.44
2023-01-03T09:20:56.484Z,6.62
2023-01-03T09:21:53.272Z,6.31
2023-01-03T09:22:53.329Z,6.42
2023-01-03T09:23:50.102Z,6.75
2023-01-03T09:24:49.365Z,5.57
2023-01-03T09:25:47.256Z,6.48
2023-01-03T09:26:46.004Z,6.69
2023-01-03T09:27:47.699Z,6.60
2023-01-03T09:28:44.505Z,5.95
2023-01-03T09:29:41.231Z,6.35
2023-01-03T09:30:42.990Z,6.03
2023-01-03T09:31:40.282Z,6.32
2023-01-03T09:32:37.145Z,5.86
2023-01-03T09:33:34.032Z,6.92
2023-01-03T09:34:30.811Z,7.07
2023-01-03T09:35:28.930Z,7.06
2023-01-03T09:36:45.903Z,7.04
2023-01-03T09:37:48.802Z,7.10
2023-01-03T09:38:46.004Z,7.29
2023-01-03T09:39:42.819Z,7.33
2023-01-03T09:40:44.120Z,7.31
2023-01-03T09:41:41.739Z,7.31
2023-01-03T09:42:57.238Z,7.10
2023-01-03T09:44:05.253Z,6.43
2023-01-03T09:45:03.307Z,7.22
2023-01-03T09:47:24.257Z,5.89
2023-01-03T09:48:36.425Z,6.67
2023-01-03T09:49:57.604Z,7.06
2023-01-03T09:51:18.376Z,7.35
2023-01-03T09:52:40.777Z,7.43
2023-01-03T09:53:59.464Z,8.11
2023-01-03T09:55:14.714Z,7.71
2023-01-03T09:56:31.795Z,8.04
2023-01-03T09:57:50.945Z,7.26
2023-01-03T09:59:13.367Z,7.56
2023-01-03T10:00:39.738Z,7.79
2023-01-03T10:02:30.105Z,7.20
2023-01-03T10:04:05.306Z,7.84
2023-01-03T10:05:17.146Z,7.80
2023-01-03T10:06:36.762Z,7.79
2023-01-03T10:08:03.635Z,7.90
2023-01-03T10:09:35.599Z,7.39
2023-01-03T10:10:48.980Z,7.46
2023-01-03T10:12:28.202Z,7.68
2023-01-03T10:14:12.530Z,7.87
2023-01-03T10:15:15.969Z,7.72
2023-01-03T10:16:27.670Z,6.56
2023-01-03T10:17:42.855Z,7.71
2023-01-03T10:19:15.134Z,7.43
2023-01-03T10:20:36.080Z,7.91
2023-01-03T10:21:55.814Z,7.90
2023-01-03T10:22:57.707Z,7.66
2023-01-03T10:23:55.225Z,8.14
2023-01-03T10:25:01.420Z,8.55
2023-01-03T10:25:58.329Z,7.77
2023-01-03T10:27:12.219Z,7.43
2023-01-03T10:28:24.448Z,8.34
2023-01-03T10:29:21.549Z,8.58
2023-01-03T10:30:30.471Z,8.31
2023-01-03T10:31:56.657Z,8.62
2023-01-03T10:33:01.231Z,8.80
2023-01-03T10:33:58.018Z,8.74
2023-01-03T10:35:29.497Z,8.95
2023-01-03T10:36:26.339Z,8.97
2023-01-03T10:37:24.748Z,8.47
2023-01-03T10:38:23.162Z,8.93
2023-01-03T10:39:32.378Z,8.86
2023-01-03T10:40:58.295Z,7.71
2023-01-03T10:41:58.877Z,9.36
2023-01-03T10:42:56.384Z,8.74
2023-01-03T10:44:02.203Z,8.81
2023-01-03T10:45:17.665Z,8.50
2023-01-03T10:46:17.732Z,9.22
2023-01-03T10:47:17.631Z,9.53
2023-01-03T10:48:14.913Z,9.05
2023-01-03T10:49:29.512Z,8.60
2023-01-03T10:50:38.523Z,9.54
2023-01-03T10:51:43.184Z,9.69
2023-01-03T10:52:41.895Z,9.66
2023-01-03T10:53:42.475Z,9.17
2023-01-03T10:54:50.575Z,9.69
2023-01-03T10:55:51.879Z,9.73
2023-01-03T10:56:49.597Z,8.94
2023-01-03T10:58:03.915Z,8.74
2023-01-03T10:59:15.472Z,9.81
2023-01-03T11:00:34.107Z,9.91
2023-01-03T11:01:31.031Z,9.30
2023-01-03T11:02:28.078Z,9.85
2023-01-03T11:03:29.222Z,9.89
2023-01-03T11:04:26.791Z,9.53
2023-01-03T11:05:26.590Z,10.15
2023-01-03T11:06:23.462Z,10.21
2023-01-03T11:07:20.355Z,10.26
2023-01-03T11:08:49.176Z,9.88
2023-01-03T11:10:04.929Z,9.97
2023-01-03T11:11:01.829Z,9.65
2023-01-03T11:12:35.650Z,10.21
2023-01-03T11:13:55.381Z,10.29
2023-01-03T11:14:56.129Z,9.50
2023-01-03T11:15:55.883Z,9.63
2023-01-03T11:17:19.643Z,9.57
2023-01-03T11:18:20.686Z,10.54
2023-01-03T11:19:20.868Z,10.61
2023-01-03T11:20:19.904Z,10.17
2023-01-03T11:21:33.733Z,10.67
2023-01-03T11:22:44.715Z,10.82
2023-01-03T11:24:17.288Z,10.79
2023-01-03T11:25:50.758Z,10.90
2023-01-03T11:27:02.598Z,10.92
2023-01-03T11:28:16.272Z,10.79
2023-01-03T11:29:48.984Z,10.73
2023-01-03T11:30:57.843Z,10.90
2023-01-03T11:32:17.293Z,11.00
2023-01-03T11:33:29.717Z,11.02
2023-01-03T11:35:22.114Z,11.01
2023-01-03T11:36:24.731Z,10.87
2023-01-03T11:37:45.912Z,10.67
2023-01-03T11:39:15.334Z,10.78
2023-01-03T11:40:29.145Z,11.02
2023-01-03T11:41:44.664Z,11.24
2023-01-03T11:43:10.794Z,11.49
2023-01-03T11:44:38.489Z,11.56
2023-01-03T11:46:09.367Z,11.65
2023-01-03T11:47:24.382Z,11.72
2023-01-03T11:48:36.451Z,11.91
2023-01-03T11:50:13.753Z,12.11
2023-01-03T11:51:11.190Z,12.06
2023-01-03T11:52:29.918Z,12.02
2023-01-03T11:53:36.461Z,11.66
2023-01-03T11:55:10.622Z,12.02
2023-01-03T11:56:27.563Z,11.81
2023-01-03T11:57:48.440Z,12.01
2023-01-03T11:59:04.931Z,11.90
2023-01-03T12:00:34.715Z,12.15
2023-01-03T12:02:13.877Z,12.20
2023-01-03T12:03:13.673Z,11.90
2023-01-03T12:04:49.322Z,12.03
2023-01-03T12:05:51.450Z,12.08
2023-01-03T12:07:45.221Z,12.28
2023-01-03T12:08:43.994Z,12.27
2023-01-03T12:09:54.138Z,12.48
2023-01-03T12:11:47.331Z,12.44
2023-01-03T12:13:17.359Z,12.70
2023-01-03T12:14:31.455Z,12.37
2023-01-03T12:15:57.728Z,12.35
2023-01-03T12:17:08.688Z,12.49
2023-01-03T12:18:26.567Z,12.66
2023-01-03T12:19:50.791Z,12.67
2023-01-03T12:21:20.721Z,12.70
2023-01-03T12:22:43.979Z,11.93
2023-01-03T12:23:55.426Z,12.18
2023-01-03T12:25:22.746Z,12.80
2023-01-03T12:26:26.314Z,12.50
2023-01-03T12:27:29.781Z,12.60
2023-01-03T12:28:50.962Z,12.77
2023-01-03T12:30:03.188Z,11.93
2023-01-03T12:31:32.091Z,12.55
2023-01-03T12:33:00.466Z,12.18
2023-01-03T12:34:24.669Z,12.51
2023-01-03T12:35:38.168Z,12.55
2023-01-03T12:36:52.758Z,12.32
2023-01-03T12:37:51.548Z,12.68
2023-01-03T12:39:18.218Z,12.82
2023-01-03T12:40:30.138Z,13.01
2023-01-03T12:42:02.035Z,12.94
2023-01-03T12:43:34.531Z,12.79
2023-01-03T12:44:42.073Z,12.94
2023-01-03T12:46:12.591Z,12.26
2023-01-03T12:47:29.270Z,12.78
2023-01-03T12:48:56.693Z,12.99
2023-01-03T12:50:15.442Z,12.89
2023-01-03T12:51:21.544Z,11.90
2023-01-03T12:52:29.275Z,13.12
2023-01-03T12:53:28.967Z,12.81
2023-01-03T12:54:38.740Z,13.11
2023-01-03T12:55:52.863Z,12.84
2023-01-03T12:56:58.137Z,13.35
2023-01-03T12:58:20.925Z,12.39
2023-01-03T12:59:46.929Z,13.36
2023-01-03T13:01:01.435Z,13.08
2023-01-03T13:02:13.758Z,13.53
2023-01-03T13:03:26.156Z,12.67
2023-01-03T13:04:35.084Z,13.03
2023-01-03T13:05:49.562Z,12.98
2023-01-03T13:08:32.989Z,13.85
2023-01-03T13:09:38.042Z,13.89
2023-01-03T13:10:43.249Z,13.43
2023-01-03T13:11:54.392Z,13.46
2023-01-03T13:12:53.305Z,13.49
2023-01-03T13:13:56.898Z,12.74
2023-01-03T13:15:02.825Z,13.83
2023-01-03T13:16:00.046Z,13.36
2023-01-03T13:17:11.973Z,14.17
2023-01-03T13:18:23.639Z,14.21
2023-01-03T13:19:42.493Z,14.26
2023-01-03T13:20:41.499Z,14.11
2023-01-03T13:22:02.557Z,14.23
2023-01-03T13:23:21.403Z,14.46
2023-01-03T13:24:41.973Z,14.48
2023-01-03T13:25:44.187Z,13.77
2023-01-03T13:27:22.545Z,14.61
2023-01-03T13:28:22.052Z,14.61
2023-01-03T13:29:35.062Z,14.63
2023-01-03T13:31:12.064Z,14.04
2023-01-03T13:32:26.407Z,14.64
2023-01-03T13:33:31.289Z,14.58
2023-01-03T13:34:37.603Z,14.14
2023-01-03T13:36:01.575Z,14.51
2023-01-03T13:37:14.496Z,14.87
2023-01-03T13:38:40.026Z,14.54
2023-01-03T13:39:44.544Z,14.96
2023-01-03T13:42:06.583Z,13.33
2023-01-03T13:43:15.868Z,14.87
2023-01-03T13:44:21.069Z,14.22
2023-01-03T13:45:40.239Z,14.83
2023-01-03T13:46:42.002Z,14.55
2023-01-03T13:47:43.697Z,13.61
2023-01-03T13:49:04.896Z,14.80
2023-01-03T13:50:03.994Z,14.88
2023-01-03T13:51:15.574Z,14.98
2023-01-03T13:52:36.431Z,14.87
2023-01-03T13:53:52.177Z,14.97
2023-01-03T13:54:59.486Z,14.65
2023-01-03T13:56:24.857Z,14.59
2023-01-03T13:57:32.365Z,14.49
2023-01-03T13:58:44.303Z,14.72
2023-01-03T13:59:45.809Z,14.53
2023-01-03T14:00:43.732Z,14.82
2023-01-03T14:02:22.042Z,14.83
2023-01-03T14:04:11.503Z,14.51
2023-01-03T14:05:26.013Z,14.48
2023-01-03T14:06:28.294Z,14.52
2023-01-03T14:07:53.870Z,14.53
2023-01-03T14:09:24.819Z,14.61
2023-01-03T14:11:10.194Z,14.64
2023-01-03T14:12:51.937Z,14.43
2023-01-03T14:13:53.320Z,14.48
2023-01-03T14:14:58.423Z,14.41
2023-01-03T14:16:17.096Z,14.01
2023-01-03T14:17:27.698Z,13.81
2023-01-03T14:19:04.486Z,14.34
2023-01-03T14:20:09.607Z,14.21
2023-01-03T14:21:15.413Z,14.30
2023-01-03T14:22:31.259Z,13.89
2023-01-03T14:24:02.419Z,13.65
2023-01-03T14:25:01.227Z,14.01
2023-01-03T14:26:12.039Z,13.49
2023-01-03T14:27:17.791Z,14.29
2023-01-03T14:28:33.572Z,14.29